Skip Navigation Links Skip Navigation Links

Current Weather

Ronald Reagan Washington National, Washington

For information only: do not use for flight planning or navigation.
Latest weather
Observation time Sunday, August 1, 2021 6:52 AM EDT
Local time Sunday, August 1, 2021 7:22 AM EDT
Flight conditions Marginal Visual Meteorological Conditions
Winds
Wind speed calm
Visibility 3 mi.
Present weather rain, mist
Sky condition
Ceiling 4,200 ft. broken clouds
Cloud layer few clouds 1,600 ft.
Cloud layer broken clouds 4,200 ft.
Cloud layer overcast 6,000 ft.
Temperature 71°F
Dewpoint 68°F
Altimeter 29.91 in.Hg
Precipitation
Precipitation last hour 0.20 in.
Derived measurements
Relative humidity 90%
Density altitude 1126 ft.
Sea-level pressure 29.90 in.Hg
Remarks
Automated weather observing station with precipitation discriminator.
METAR KDCA 011052Z 00000KT 3SM RA BR FEW016 BKN042 OVC060 22/20 A2991 RMK AO2 SLP126 P0020 T02170200

Settings

Location code

InnerDrive.Weather 4.0.6770.0 Release CLR 4.0.30319.42000
Copyright ©2018 Inner Drive Technology. All rights reserved. Portions Copyright ©1986-2018 David Braverman.

Find weather

Site navigation


Skip Navigation Links

Place info

Page info

PayPal - The safer, easier way to pay online!

Return home.

Copyright ©2021 Inner Drive Technology. Purveyors of fine, hand-crafted computer software. Page printed 2021-08-01T11:22:38 UTC.